Time;durP1;ratioP1;P1;durP2;ratioP2;P2;SDS_P1;SDS_P2;PMS_P1;PMS_P2;Temp;Humidity;BMP_temperature;BMP_pressure;BME280_temperature;BME280_humidity;BME280_pressure;Samples;Min_cycle;Max_cycle;Signal;HPM_P1;HPM_P2
2022/04/25 00:02:14;;;;;;;16.27;6.20;;;;;;;;;;5107427;27;20106;-64
2022/04/25 00:04:41;;;;;;;13.18;6.25;;;;;;;;;;5108094;27;20098;-64
2022/04/25 00:07:07;;;;;;;11.13;6.30;;;;;;;;;;5108156;27;20095;-64
2022/04/25 00:09:33;;;;;;;11.13;6.40;;;;;;;;;;5108862;27;21044;-64
2022/04/25 00:12:00;;;;;;;11.20;5.88;;;;;;;;;;5113272;27;20151;-64
2022/04/25 00:14:26;;;;;;;15.60;5.50;;;;;;;;;;5120180;27;20190;-64
2022/04/25 00:16:56;;;;;;;12.35;5.65;;;;;;;;;;5109250;27;20142;-64
2022/04/25 00:19:22;;;;;;;17.80;6.20;;;;;;;;;;5121412;27;20443;-64
2022/04/25 00:21:51;;;;;;;19.48;5.90;;;;;;;;;;5122038;27;20079;-64
2022/04/25 00:24:18;;;;;;;11.90;6.15;;;;;;;;;;5105654;27;20063;-64
2022/04/25 00:26:44;;;;;;;17.73;6.28;;;;;;;;;;5110324;27;20139;-64
2022/04/25 00:29:12;;;;;;;17.60;6.10;;;;;;;;;;5120250;27;20146;-64
2022/04/25 00:31:41;;;;;;;13.43;5.75;;;;;;;;;;5109034;27;20102;-64
2022/04/25 00:34:07;;;;;;;11.75;6.10;;;;;;;;;;5107360;27;20060;-64
2022/04/25 00:36:34;;;;;;;15.00;5.90;;;;;;;;;;5107410;27;20143;-64
2022/04/25 00:39:00;;;;;;;13.15;6.20;;;;;;;;;;5117683;27;20072;-64
2022/04/25 00:41:26;;;;;;;12.02;5.35;;;;;;;;;;5113099;27;20079;-64
2022/04/25 00:43:56;;;;;;;15.23;6.50;;;;;;;;;;5123889;27;20642;-64
2022/04/25 00:46:24;;;;;;;12.88;5.97;;;;;;;;;;5112895;27;20084;-64
2022/04/25 00:48:50;;;;;;;17.90;7.00;;;;;;;;;;5112994;27;20063;-64
2022/04/25 00:51:17;;;;;;;15.43;6.75;;;;;;;;;;5114399;27;20084;-64
2022/04/25 00:53:45;;;;;;;12.32;5.97;;;;;;;;;;5129111;27;20055;-64
2022/04/25 00:56:14;;;;;;;15.27;6.68;;;;;;;;;;5118660;27;20573;-64
2022/04/25 00:58:42;;;;;;;16.23;6.35;;;;;;;;;;5112169;27;20544;-64
2022/04/25 01:01:08;;;;;;;12.40;6.47;;;;;;;;;;5119920;27;20123;-64
2022/04/25 01:03:35;;;;;;;15.07;5.82;;;;;;;;;;5107363;27;20063;-64
2022/04/25 01:06:01;;;;;;;14.75;6.28;;;;;;;;;;5107035;27;20571;-64
2022/04/25 01:08:28;;;;;;;15.25;6.95;;;;;;;;;;5109575;27;20144;-64
2022/04/25 01:10:55;;;;;;;14.98;6.32;;;;;;;;;;5112006;27;20748;-64
2022/04/25 01:13:22;;;;;;;11.93;6.20;;;;;;;;;;5114511;27;20048;-64
2022/04/25 01:15:48;;;;;;;12.93;6.38;;;;;;;;;;5106896;27;20044;-64
2022/04/25 01:18:14;;;;;;;13.68;6.70;;;;;;;;;;5117001;27;20067;-64
2022/04/25 01:20:41;;;;;;;14.65;6.68;;;;;;;;;;5112617;27;20135;-64
2022/04/25 01:28:51;;;;;;;12.20;6.50;;;;;;;;;;5106189;27;20597;-64
2022/04/25 01:31:17;;;;;;;13.45;6.80;;;;;;;;;;5106135;27;20075;-64
2022/04/25 01:33:44;;;;;;;15.10;7.20;;;;;;;;;;5107575;27;20059;-64
2022/04/25 01:36:11;;;;;;;14.60;7.28;;;;;;;;;;5107819;27;20080;-64
2022/04/25 01:38:38;;;;;;;16.15;7.25;;;;;;;;;;5120229;27;20079;-64
2022/04/25 01:41:04;;;;;;;15.70;7.18;;;;;;;;;;5114126;27;20139;-64
2022/04/25 01:43:34;;;;;;;15.25;7.30;;;;;;;;;;5127277;27;20131;-64
2022/04/25 01:46:03;;;;;;;16.90;7.50;;;;;;;;;;5109898;27;20076;-64
2022/04/25 01:48:30;;;;;;;16.25;6.90;;;;;;;;;;5106633;27;20117;-63
2022/04/25 01:50:57;;;;;;;14.80;6.68;;;;;;;;;;5116824;27;20142;-63
2022/04/25 01:53:23;;;;;;;16.58;7.20;;;;;;;;;;5107072;27;20159;-63
2022/04/25 01:55:50;;;;;;;14.10;6.78;;;;;;;;;;5106522;27;20126;-63
2022/04/25 01:58:16;;;;;;;21.75;7.53;;;;;;;;;;5106869;27;20056;-64
2022/04/25 02:00:43;;;;;;;17.70;7.47;;;;;;;;;;5106351;27;20142;-64
2022/04/25 02:03:11;;;;;;;15.63;7.25;;;;;;;;;;5106010;27;20056;-63
2022/04/25 02:05:37;;;;;;;19.05;7.22;;;;;;;;;;5110454;27;20059;-63
2022/04/25 02:08:04;;;;;;;14.85;7.28;;;;;;;;;;5106730;27;20083;-63
2022/04/25 02:10:30;;;;;;;18.13;7.75;;;;;;;;;;5117272;27;20150;-63
2022/04/25 02:12:56;;;;;;;16.73;8.02;;;;;;;;;;5123181;27;20117;-64
2022/04/25 02:15:23;;;;;;;17.30;7.60;;;;;;;;;;5120910;27;20425;-64
2022/04/25 02:17:49;;;;;;;19.83;7.97;;;;;;;;;;5109520;27;20601;-64
2022/04/25 02:20:16;;;;;;;15.52;7.25;;;;;;;;;;5119895;27;20128;-64
2022/04/25 02:22:43;;;;;;;13.68;7.65;;;;;;;;;;5121305;27;20085;-64
2022/04/25 02:25:10;;;;;;;15.60;7.80;;;;;;;;;;5123871;27;20131;-64
2022/04/25 02:27:36;;;;;;;14.65;7.53;;;;;;;;;;5110063;27;20531;-64
2022/04/25 02:30:04;;;;;;;21.00;8.00;;;;;;;;;;5108901;27;20068;-64
2022/04/25 02:32:30;;;;;;;14.10;7.68;;;;;;;;;;5129537;27;20402;-64
2022/04/25 02:34:57;;;;;;;15.10;7.40;;;;;;;;;;5120696;27;20052;-64
2022/04/25 02:37:25;;;;;;;15.02;7.40;;;;;;;;;;5112179;27;20135;-64
2022/04/25 02:39:51;;;;;;;20.10;8.35;;;;;;;;;;5126144;27;20083;-64
2022/04/25 02:42:17;;;;;;;14.00;7.32;;;;;;;;;;5130349;27;20052;-64
2022/04/25 02:44:44;;;;;;;14.63;7.90;;;;;;;;;;5127444;27;20104;-64
2022/04/25 02:47:12;;;;;;;;;;;;;;;;;;5117056;27;20058;-64
2022/04/25 02:49:38;;;;;;;17.85;8.23;;;;;;;;;;5124169;27;45171;-64
2022/04/25 02:52:05;;;;;;;16.75;7.95;;;;;;;;;;5114203;27;20083;-64
2022/04/25 02:54:32;;;;;;;15.30;7.95;;;;;;;;;;5110255;27;20656;-64
2022/04/25 02:57:00;;;;;;;17.35;7.78;;;;;;;;;;5109615;27;20118;-64
2022/04/25 02:59:27;;;;;;;18.42;8.07;;;;;;;;;;5119364;27;20070;-64
2022/04/25 03:01:53;;;;;;;15.52;8.05;;;;;;;;;;5115054;27;20060;-63
2022/04/25 03:04:20;;;;;;;17.20;7.93;;;;;;;;;;5109191;27;20048;-65
2022/04/25 03:06:46;;;;;;;19.40;7.63;;;;;;;;;;5113248;27;20597;-64
2022/04/25 03:09:12;;;;;;;16.45;7.88;;;;;;;;;;5112159;27;20134;-64
2022/04/25 03:11:39;;;;;;;16.73;8.30;;;;;;;;;;5118322;27;20427;-65
2022/04/25 03:14:05;;;;;;;16.63;7.75;;;;;;;;;;5108678;27;20076;-65
2022/04/25 03:16:31;;;;;;;15.95;7.85;;;;;;;;;;5113632;27;20056;-64
2022/04/25 03:18:58;;;;;;;17.33;8.30;;;;;;;;;;5108900;27;20454;-65
2022/04/25 03:21:25;;;;;;;19.05;8.38;;;;;;;;;;5106221;27;20052;-65
2022/04/25 03:23:53;;;;;;;15.45;8.05;;;;;;;;;;5109374;27;20088;-64
2022/04/25 03:26:19;;;;;;;22.33;8.55;;;;;;;;;;5108253;27;20591;-65
2022/04/25 03:28:46;;;;;;;15.43;7.60;;;;;;;;;;5108983;27;20105;-64
2022/04/25 03:31:12;;;;;;;19.58;8.52;;;;;;;;;;5109472;27;20147;-64
2022/04/25 03:33:38;;;;;;;19.33;8.98;;;;;;;;;;5127491;27;20418;-65
2022/04/25 03:36:05;;;;;;;21.38;8.82;;;;;;;;;;5108254;28;20613;-64
2022/04/25 03:38:31;;;;;;;19.63;9.20;;;;;;;;;;5108783;27;20544;-65
2022/04/25 03:40:59;;;;;;;19.83;8.40;;;;;;;;;;5108618;27;20071;-65
2022/04/25 03:43:25;;;;;;;17.58;8.75;;;;;;;;;;5109060;27;20145;-65
2022/04/25 03:45:52;;;;;;;19.75;9.40;;;;;;;;;;5108948;27;20058;-65
2022/04/25 03:48:18;;;;;;;20.20;8.48;;;;;;;;;;5109310;27;20582;-65
2022/04/25 03:50:45;;;;;;;17.65;8.77;;;;;;;;;;5112506;27;20079;-64
2022/04/25 03:53:13;;;;;;;22.40;9.30;;;;;;;;;;5124442;27;20056;-64
2022/04/25 03:58:24;;;;;;;19.48;9.20;;;;;;;;;;5128974;27;20076;-64
2022/04/25 04:00:51;;;;;;;17.70;8.70;;;;;;;;;;5128371;27;20478;-63
2022/04/25 04:03:18;;;;;;;14.88;8.48;;;;;;;;;;5129110;27;20055;-63
2022/04/25 04:05:50;;;;;;;18.17;9.18;;;;;;;;;;5127783;27;20087;-63
2022/04/25 04:08:16;;;;;;;19.58;10.00;;;;;;;;;;5128946;27;20079;-64
2022/04/25 04:10:43;;;;;;;23.10;9.73;;;;;;;;;;5129157;27;20146;-63
2022/04/25 04:13:10;;;;;;;18.75;9.57;;;;;;;;;;5128818;27;20139;-63
2022/04/25 04:15:36;;;;;;;19.40;9.55;;;;;;;;;;5129010;27;20086;-63
2022/04/25 04:18:04;;;;;;;24.15;10.18;;;;;;;;;;5128643;27;20051;-64
2022/04/25 04:20:32;;;;;;;20.17;9.65;;;;;;;;;;5128707;27;20047;-64
2022/04/25 04:22:58;;;;;;;18.40;9.35;;;;;;;;;;5128279;27;20170;-63
2022/04/25 04:25:24;;;;;;;20.23;10.25;;;;;;;;;;5127599;27;20056;-63
2022/04/25 04:27:51;;;;;;;19.77;10.30;;;;;;;;;;5129171;27;20055;-63
2022/04/25 04:30:18;;;;;;;20.15;9.98;;;;;;;;;;5128041;27;20548;-64
2022/04/25 04:32:45;;;;;;;19.58;10.13;;;;;;;;;;5128570;27;20052;-64
2022/04/25 04:35:12;;;;;;;21.50;11.00;;;;;;;;;;5128326;27;20138;-63
2022/04/25 04:37:39;;;;;;;23.88;10.95;;;;;;;;;;5128741;27;20625;-64
2022/04/25 04:42:52;;;;;;;16.80;9.70;;;;;;;;;;5128506;27;20549;-64
2022/04/25 04:45:19;;;;;;;19.75;10.52;;;;;;;;;;5128249;27;20706;-63
2022/04/25 04:47:45;;;;;;;19.35;10.18;;;;;;;;;;5127776;27;20132;-63
2022/04/25 04:50:15;;;;;;;20.08;10.77;;;;;;;;;;5128471;27;20152;-64
2022/04/25 04:52:43;;;;;;;18.83;9.95;;;;;;;;;;5127915;27;20055;-63
2022/04/25 04:55:10;;;;;;;21.35;11.13;;;;;;;;;;5127446;27;20148;-64
2022/04/25 04:57:37;;;;;;;23.30;10.77;;;;;;;;;;5128304;27;20112;-63
2022/04/25 05:00:08;;;;;;;19.92;11.00;;;;;;;;;;5128159;27;20079;-63
2022/04/25 05:02:35;;;;;;;22.20;10.80;;;;;;;;;;5127943;27;20083;-63
2022/04/25 05:05:02;;;;;;;19.23;11.77;;;;;;;;;;5128499;27;20044;-63
2022/04/25 05:07:29;;;;;;;19.08;9.80;;;;;;;;;;5128377;27;20134;-63
2022/04/25 05:09:55;;;;;;;21.50;12.07;;;;;;;;;;5127545;27;20591;-64
2022/04/25 05:12:26;;;;;;;26.13;11.68;;;;;;;;;;5127590;27;20138;-64
2022/04/25 05:14:54;;;;;;;26.58;12.10;;;;;;;;;;5127864;27;20047;-63
2022/04/25 05:17:20;;;;;;;21.45;11.73;;;;;;;;;;5127779;27;20055;-64
2022/04/25 05:19:46;;;;;;;23.35;12.20;;;;;;;;;;5127724;27;20502;-63
2022/04/25 05:22:13;;;;;;;21.42;12.07;;;;;;;;;;5127807;27;20109;-64
2022/04/25 05:24:39;;;;;;;24.92;12.60;;;;;;;;;;5127580;27;20082;-64
2022/04/25 05:27:05;;;;;;;23.52;12.80;;;;;;;;;;5127495;27;20086;-64
2022/04/25 05:29:32;;;;;;;27.42;13.38;;;;;;;;;;5128008;27;20091;-64
2022/04/25 05:31:59;;;;;;;24.35;12.48;;;;;;;;;;5127976;27;20121;-64
2022/04/25 05:34:36;;;;;;;23.77;11.88;;;;;;;;;;5127727;27;20079;-63
2022/04/25 05:37:02;;;;;;;28.27;13.77;;;;;;;;;;5127983;27;20083;-64
2022/04/25 05:39:30;;;;;;;25.85;12.60;;;;;;;;;;5127808;27;20079;-64
2022/04/25 05:42:01;;;;;;;27.42;13.73;;;;;;;;;;5127984;27;20052;-64
2022/04/25 05:44:28;;;;;;;33.95;14.27;;;;;;;;;;5129744;27;20067;-64
2022/04/25 05:46:55;;;;;;;28.25;13.90;;;;;;;;;;5130833;27;20138;-64
2022/04/25 05:52:08;;;;;;;23.55;14.77;;;;;;;;;;5131747;27;20048;-64
2022/04/25 05:54:36;;;;;;;29.90;15.35;;;;;;;;;;5130863;27;20055;-64
2022/04/25 05:57:02;;;;;;;26.52;14.70;;;;;;;;;;5131454;27;20055;-64
2022/04/25 05:59:29;;;;;;;28.50;14.10;;;;;;;;;;5130938;27;20082;-64
2022/04/25 06:01:57;;;;;;;23.70;13.85;;;;;;;;;;5131302;27;20055;-63
2022/04/25 06:04:23;;;;;;;29.15;14.77;;;;;;;;;;5131740;27;20056;-64
2022/04/25 06:06:55;;;;;;;22.67;14.18;;;;;;;;;;5130409;27;20059;-64
2022/04/25 06:09:25;;;;;;;30.67;16.50;;;;;;;;;;5131052;27;20086;-63
2022/04/25 06:11:53;;;;;;;27.63;14.25;;;;;;;;;;5131351;27;20047;-63
2022/04/25 06:14:21;;;;;;;27.77;13.20;;;;;;;;;;5131631;27;20052;-63
2022/04/25 06:16:48;;;;;;;;;;;;;;;;;;5132272;27;20105;-63
2022/04/25 06:19:14;;;;;;;23.38;13.57;;;;;;;;;;5130399;27;43066;-63
2022/04/25 06:21:40;;;;;;;27.08;15.43;;;;;;;;;;5131797;27;20105;-63
2022/04/25 06:24:07;;;;;;;30.23;16.20;;;;;;;;;;5132302;27;20055;-63
2022/04/25 06:26:34;;;;;;;32.28;16.08;;;;;;;;;;5131864;27;20052;-63
2022/04/25 06:29:00;;;;;;;26.08;15.60;;;;;;;;;;5130977;27;20109;-63
2022/04/25 06:31:26;;;;;;;29.30;15.75;;;;;;;;;;5131495;27;20130;-63
2022/04/25 06:33:53;;;;;;;28.27;14.95;;;;;;;;;;5130750;27;20147;-63
2022/04/25 06:36:19;;;;;;;27.20;15.23;;;;;;;;;;5131864;27;20091;-63
2022/04/25 06:38:46;;;;;;;30.75;16.02;;;;;;;;;;5131146;27;20139;-63
2022/04/25 06:41:12;;;;;;;28.98;15.13;;;;;;;;;;5131543;27;20127;-63
2022/04/25 06:43:38;;;;;;;27.25;14.43;;;;;;;;;;5131452;27;20151;-63
2022/04/25 06:46:05;;;;;;;28.20;14.73;;;;;;;;;;5131117;27;20085;-63
2022/04/25 06:48:32;;;;;;;26.88;14.95;;;;;;;;;;5131504;27;20109;-63
2022/04/25 06:50:58;;;;;;;27.92;15.18;;;;;;;;;;5130626;27;20051;-63
2022/04/25 06:53:25;;;;;;;29.05;15.27;;;;;;;;;;5131398;27;20139;-64
2022/04/25 06:55:51;;;;;;;27.10;14.40;;;;;;;;;;5129106;27;20112;-63
2022/04/25 06:58:17;;;;;;;29.63;15.18;;;;;;;;;;5130262;27;20109;-64
2022/04/25 07:00:45;;;;;;;29.92;15.88;;;;;;;;;;5130633;27;20143;-63
2022/04/25 07:03:12;;;;;;;27.83;15.30;;;;;;;;;;5130084;27;20059;-63
2022/04/25 07:05:38;;;;;;;28.38;15.73;;;;;;;;;;5130564;27;20051;-63
2022/04/25 07:08:05;;;;;;;28.10;14.52;;;;;;;;;;5130714;27;20927;-63
2022/04/25 07:10:31;;;;;;;26.85;14.02;;;;;;;;;;5130816;27;20563;-63
2022/04/25 07:12:57;;;;;;;29.55;15.73;;;;;;;;;;5130461;27;20152;-63
2022/04/25 07:15:24;;;;;;;25.95;14.15;;;;;;;;;;5130259;27;20210;-64
2022/04/25 07:17:55;;;;;;;23.70;13.20;;;;;;;;;;5129396;27;20090;-64
2022/04/25 07:20:22;;;;;;;30.38;16.70;;;;;;;;;;5130246;27;20117;-63
2022/04/25 07:31:02;;;;;;;28.27;14.88;;;;;;;;;;5128854;27;21017;-63
2022/04/25 07:33:30;;;;;;;31.02;14.73;;;;;;;;;;5129662;27;20051;-64
2022/04/25 07:35:57;;;;;;;27.08;13.70;;;;;;;;;;5129984;27;20950;-64
2022/04/25 07:38:23;;;;;;;25.40;14.55;;;;;;;;;;5129400;27;20101;-63
2022/04/25 07:40:50;;;;;;;26.88;13.65;;;;;;;;;;5128990;27;20082;-63
2022/04/25 07:43:16;;;;;;;27.65;14.07;;;;;;;;;;5129826;27;20113;-64
2022/04/25 07:45:42;;;;;;;24.33;13.65;;;;;;;;;;5129745;27;20133;-64
2022/04/25 07:48:09;;;;;;;23.15;12.85;;;;;;;;;;5128250;27;20079;-63
2022/04/25 07:50:36;;;;;;;24.98;14.10;;;;;;;;;;5129298;27;20136;-64
2022/04/25 07:53:03;;;;;;;27.27;14.27;;;;;;;;;;5129474;27;20592;-64
2022/04/25 07:55:31;;;;;;;25.35;14.20;;;;;;;;;;5129270;27;20309;-64
2022/04/25 07:57:57;;;;;;;28.83;14.65;;;;;;;;;;5129715;27;20159;-63
2022/04/25 08:00:24;;;;;;;26.80;14.40;;;;;;;;;;5129175;27;20055;-64
2022/04/25 08:02:50;;;;;;;27.02;12.77;;;;;;;;;;5129045;27;20067;-64
2022/04/25 08:05:17;;;;;;;27.75;15.00;;;;;;;;;;5129092;27;20138;-64
2022/04/25 08:07:43;;;;;;;25.00;13.43;;;;;;;;;;5128374;27;20105;-64
2022/04/25 08:10:09;;;;;;;27.38;13.65;;;;;;;;;;5129116;27;20150;-64
2022/04/25 08:18:06;;;;;;;24.85;13.98;;;;;;;;;;5129223;27;20044;-64
2022/04/25 08:20:34;;;;;;;25.92;12.88;;;;;;;;;;5128852;27;20060;-64
2022/04/25 08:23:11;;;;;;;26.33;13.25;;;;;;;;;;5128817;27;20056;-64
2022/04/25 08:25:39;;;;;;;24.13;12.75;;;;;;;;;;5128881;27;20110;-63
2022/04/25 08:28:05;;;;;;;25.50;12.80;;;;;;;;;;5128585;27;20494;-64
2022/04/25 08:30:32;;;;;;;25.02;12.80;;;;;;;;;;5129170;27;20090;-63
2022/04/25 08:32:59;;;;;;;24.83;14.32;;;;;;;;;;5128531;27;20576;-63
2022/04/25 08:35:25;;;;;;;23.52;14.35;;;;;;;;;;5127941;27;20559;-63
2022/04/25 08:37:54;;;;;;;26.00;13.07;;;;;;;;;;5128386;27;20497;-64
2022/04/25 08:40:21;;;;;;;22.17;12.60;;;;;;;;;;5128781;27;20059;-63
2022/04/25 08:42:48;;;;;;;21.45;12.13;;;;;;;;;;5128707;27;20098;-63
2022/04/25 08:45:15;;;;;;;25.65;12.23;;;;;;;;;;5128874;27;20498;-63
2022/04/25 08:47:51;;;;;;;23.05;11.93;;;;;;;;;;5128569;27;20125;-63
2022/04/25 08:50:18;;;;;;;20.85;11.68;;;;;;;;;;5128727;27;20134;-63
2022/04/25 08:52:45;;;;;;;22.90;12.13;;;;;;;;;;5128459;27;20104;-63
2022/04/25 08:55:12;;;;;;;23.98;12.48;;;;;;;;;;5128135;27;20047;-63
2022/04/25 08:57:40;;;;;;;22.10;13.13;;;;;;;;;;5128311;27;20133;-63
2022/04/25 09:00:07;;;;;;;29.55;13.65;;;;;;;;;;5129032;27;20087;-63
2022/04/25 09:02:38;;;;;;;24.85;12.55;;;;;;;;;;5127582;27;20517;-63
2022/04/25 09:05:06;;;;;;;24.25;12.73;;;;;;;;;;5128303;27;20058;-63
2022/04/25 09:07:34;;;;;;;27.67;14.45;;;;;;;;;;5128274;27;20083;-63
2022/04/25 09:10:00;;;;;;;23.70;12.27;;;;;;;;;;5128003;27;20087;-63
2022/04/25 09:12:27;;;;;;;25.35;11.95;;;;;;;;;;5128755;27;20147;-63
2022/04/25 09:14:54;;;;;;;27.50;13.40;;;;;;;;;;5127572;27;20635;-63
2022/04/25 09:17:40;;;;;;;23.23;12.60;;;;;;;;;;5127601;27;20142;-64
2022/04/25 09:20:08;;;;;;;32.15;12.85;;;;;;;;;;5131503;27;20083;-64
2022/04/25 09:22:36;;;;;;;22.50;12.05;;;;;;;;;;5132487;27;20138;-64
2022/04/25 09:25:04;;;;;;;23.02;11.88;;;;;;;;;;5131771;27;20048;-64
2022/04/25 09:28:12;;;;;;;21.43;11.33;;;;;;;;;;5129995;27;20047;-70
2022/04/25 09:30:39;;;;;;;23.25;12.48;;;;;;;;;;5132186;27;20052;-65
2022/04/25 09:33:20;;;;;;;25.50;12.77;;;;;;;;;;5131727;27;20052;-64
2022/04/25 09:35:52;;;;;;;23.30;13.13;;;;;;;;;;5131984;27;20109;-64
2022/04/25 09:38:27;;;;;;;29.85;13.13;;;;;;;;;;5132025;27;20109;-64
2022/04/25 09:40:55;;;;;;;24.63;11.82;;;;;;;;;;5131674;27;20083;-64
2022/04/25 09:43:27;;;;;;;23.70;13.00;;;;;;;;;;5131711;27;20090;-64
2022/04/25 09:45:58;;;;;;;23.50;12.98;;;;;;;;;;5131610;27;20129;-64
2022/04/25 09:48:25;;;;;;;26.83;13.43;;;;;;;;;;5131735;27;20047;-64
2022/04/25 09:51:07;;;;;;;23.90;13.93;;;;;;;;;;5131491;27;20079;-64
2022/04/25 09:53:50;;;;;;;25.13;13.20;;;;;;;;;;5131253;27;20052;-64
2022/04/25 09:56:30;;;;;;;31.15;13.90;;;;;;;;;;5131102;27;20051;-64
2022/04/25 09:59:01;;;;;;;28.25;13.95;;;;;;;;;;5130635;27;20869;-64
2022/04/25 10:01:28;;;;;;;26.75;13.30;;;;;;;;;;5131880;27;20051;-64
2022/04/25 10:03:54;;;;;;;23.23;12.85;;;;;;;;;;5131134;27;20067;-64
2022/04/25 10:06:21;;;;;;;28.90;13.80;;;;;;;;;;5131821;27;20055;-64
2022/04/25 10:08:48;;;;;;;26.58;13.25;;;;;;;;;;5131924;27;20109;-64
2022/04/25 10:11:17;;;;;;;26.17;12.88;;;;;;;;;;5131021;27;20132;-64
2022/04/25 10:13:45;;;;;;;27.10;13.73;;;;;;;;;;5130897;27;20083;-64
2022/04/25 10:16:12;;;;;;;27.90;12.35;;;;;;;;;;5131065;27;20093;-64
2022/04/25 10:18:39;;;;;;;26.00;13.68;;;;;;;;;;5130523;27;20079;-64
2022/04/25 10:21:07;;;;;;;23.00;13.30;;;;;;;;;;5130216;27;20536;-64
2022/04/25 10:23:34;;;;;;;27.35;12.85;;;;;;;;;;5131015;27;20450;-64
2022/04/25 10:26:01;;;;;;;29.00;13.73;;;;;;;;;;5130858;27;20143;-64
2022/04/25 10:28:30;;;;;;;27.05;13.70;;;;;;;;;;5131099;27;20064;-64
2022/04/25 10:31:04;;;;;;;23.67;12.80;;;;;;;;;;5130698;27;20060;-64
2022/04/25 10:33:47;;;;;;;24.00;13.23;;;;;;;;;;5130279;27;20054;-64
2022/04/25 10:36:32;;;;;;;25.08;12.32;;;;;;;;;;5131171;27;20109;-64
2022/04/25 10:39:15;;;;;;;24.55;12.93;;;;;;;;;;5130113;27;20082;-64
2022/04/25 10:44:26;;;;;;;23.42;12.95;;;;;;;;;;5129958;27;20109;-64
2022/04/25 10:47:05;;;;;;;24.15;12.63;;;;;;;;;;5130421;27;20052;-64
2022/04/25 10:49:32;;;;;;;26.55;12.80;;;;;;;;;;5130270;27;20055;-64
2022/04/25 10:52:00;;;;;;;26.25;13.77;;;;;;;;;;5130140;27;20478;-64
2022/04/25 10:54:28;;;;;;;25.05;12.13;;;;;;;;;;5130711;27;20567;-64
2022/04/25 10:57:13;;;;;;;25.15;13.38;;;;;;;;;;5130031;27;20442;-64
2022/04/25 10:59:39;;;;;;;23.70;11.73;;;;;;;;;;5130597;27;20136;-64
2022/04/25 11:02:27;;;;;;;20.00;11.88;;;;;;;;;;5130208;27;20055;-64
2022/04/25 11:05:12;;;;;;;25.33;12.68;;;;;;;;;;5130180;27;20108;-64
2022/04/25 11:07:39;;;;;;;21.75;12.57;;;;;;;;;;5130299;27;20484;-64
2022/04/25 11:10:05;;;;;;;23.35;12.95;;;;;;;;;;5129437;27;20079;-64
2022/04/25 11:12:50;;;;;;;26.73;12.95;;;;;;;;;;5130312;27;20136;-64
2022/04/25 11:15:37;;;;;;;23.40;12.63;;;;;;;;;;5130449;27;20075;-64
2022/04/25 11:18:33;;;;;;;23.55;13.18;;;;;;;;;;5129791;27;20104;-64
2022/04/25 11:21:07;;;;;;;25.23;13.60;;;;;;;;;;5111648;27;20131;-64
2022/04/25 11:23:33;;;;;;;23.48;13.15;;;;;;;;;;5130075;27;20509;-64
2022/04/25 11:26:05;;;;;;;23.77;12.38;;;;;;;;;;5130440;27;20492;-64
2022/04/25 11:28:35;;;;;;;26.88;12.10;;;;;;;;;;5129981;27;20054;-64
2022/04/25 11:31:13;;;;;;;24.88;12.98;;;;;;;;;;5129454;27;20127;-64
2022/04/25 11:33:40;;;;;;;21.95;11.93;;;;;;;;;;5130033;27;20056;-64
2022/04/25 11:36:08;;;;;;;28.05;13.10;;;;;;;;;;5128691;27;20051;-64
2022/04/25 11:41:26;;;;;;;26.17;12.10;;;;;;;;;;5128260;27;20148;-64
2022/04/25 11:43:52;;;;;;;20.50;12.05;;;;;;;;;;5130054;27;20566;-63
2022/04/25 11:46:19;;;;;;;23.23;11.60;;;;;;;;;;5129663;27;20069;-64
2022/04/25 11:48:48;;;;;;;23.83;12.55;;;;;;;;;;5129036;27;20059;-64
2022/04/25 11:51:21;;;;;;;23.45;12.15;;;;;;;;;;5129080;27;20056;-64
2022/04/25 11:53:48;;;;;;;21.85;11.10;;;;;;;;;;5128943;27;20498;-64
2022/04/25 11:56:15;;;;;;;23.05;12.25;;;;;;;;;;5129108;27;20091;-64
2022/04/25 11:58:41;;;;;;;22.13;12.50;;;;;;;;;;5129676;27;20109;-64
2022/04/25 12:01:09;;;;;;;20.58;11.05;;;;;;;;;;5128863;27;20087;-64
2022/04/25 12:03:36;;;;;;;28.42;13.10;;;;;;;;;;5128784;27;20116;-64
2022/04/25 12:06:07;;;;;;;26.17;15.25;;;;;;;;;;5129154;27;20048;-64
2022/04/25 12:16:48;;;;;;;28.40;14.38;;;;;;;;;;5129014;27;20575;-64
2022/04/25 12:19:14;;;;;;;26.75;14.13;;;;;;;;;;5128690;27;20143;-64
2022/04/25 12:21:47;;;;;;;25.55;12.55;;;;;;;;;;5128776;27;20531;-64
2022/04/25 12:24:21;;;;;;;29.23;14.57;;;;;;;;;;5129301;27;20048;-64
2022/04/25 12:26:47;;;;;;;28.33;15.63;;;;;;;;;;5128666;27;20086;-64
2022/04/25 12:29:13;;;;;;;26.20;14.13;;;;;;;;;;5129442;27;20075;-64
2022/04/25 12:31:48;;;;;;;26.17;13.45;;;;;;;;;;5128676;27;20583;-64
2022/04/25 12:34:16;;;;;;;29.08;15.57;;;;;;;;;;5129138;27;20106;-65
2022/04/25 12:37:00;;;;;;;23.88;13.52;;;;;;;;;;5128149;27;20167;-64
2022/04/25 12:39:27;;;;;;;29.42;13.93;;;;;;;;;;5128230;27;20055;-64
2022/04/25 12:41:53;;;;;;;27.90;14.30;;;;;;;;;;5128961;27;20059;-64
2022/04/25 12:44:20;;;;;;;26.42;14.95;;;;;;;;;;5129085;27;20144;-64
2022/04/25 12:46:54;;;;;;;27.75;14.13;;;;;;;;;;5128352;27;20810;-65
2022/04/25 12:49:37;;;;;;;25.42;13.90;;;;;;;;;;5129036;27;20087;-64
2022/04/25 12:52:13;;;;;;;27.88;13.93;;;;;;;;;;5127516;27;20047;-65
2022/04/25 12:54:47;;;;;;;26.58;14.05;;;;;;;;;;5126789;27;20051;-66
2022/04/25 12:57:21;;;;;;;24.85;13.50;;;;;;;;;;5128312;27;20091;-65
2022/04/25 12:59:53;;;;;;;27.98;14.68;;;;;;;;;;5128203;27;20085;-64
2022/04/25 13:02:21;;;;;;;25.05;13.30;;;;;;;;;;5128168;27;20051;-64
2022/04/25 13:04:52;;;;;;;27.43;14.27;;;;;;;;;;5127941;27;20591;-65
2022/04/25 13:07:20;;;;;;;23.38;13.55;;;;;;;;;;5128355;27;20063;-64
2022/04/25 13:09:46;;;;;;;29.33;14.82;;;;;;;;;;5128345;27;20080;-65
2022/04/25 13:12:18;;;;;;;29.77;14.98;;;;;;;;;;5128863;27;20051;-66
2022/04/25 13:14:45;;;;;;;33.33;14.73;;;;;;;;;;5128545;27;20110;-64
2022/04/25 13:17:12;;;;;;;27.33;14.55;;;;;;;;;;5127868;27;20104;-64
2022/04/25 13:19:39;;;;;;;28.40;14.02;;;;;;;;;;5128825;27;20877;-64
2022/04/25 13:22:05;;;;;;;28.08;14.80;;;;;;;;;;5128846;27;20144;-65
2022/04/25 13:24:36;;;;;;;28.00;14.93;;;;;;;;;;5128348;27;20063;-65
2022/04/25 13:27:03;;;;;;;29.10;15.45;;;;;;;;;;5128087;27;20522;-64
2022/04/25 13:29:29;;;;;;;27.52;13.48;;;;;;;;;;5129163;27;20150;-65
2022/04/25 13:31:56;;;;;;;31.83;14.70;;;;;;;;;;5127847;27;20051;-64
2022/04/25 13:34:22;;;;;;;31.67;15.82;;;;;;;;;;5128306;27;20083;-64
2022/04/25 13:36:49;;;;;;;28.85;14.18;;;;;;;;;;5127679;27;20083;-64
2022/04/25 13:39:15;;;;;;;28.77;14.88;;;;;;;;;;5127633;27;20058;-64
2022/04/25 13:41:41;;;;;;;32.03;16.13;;;;;;;;;;5127236;27;20055;-64
2022/04/25 13:44:08;;;;;;;27.05;14.45;;;;;;;;;;5128191;27;20083;-64
2022/04/25 13:46:34;;;;;;;31.27;16.27;;;;;;;;;;5127380;27;20567;-64
2022/04/25 13:49:07;;;;;;;30.50;15.60;;;;;;;;;;5127808;27;20055;-65
2022/04/25 13:51:33;;;;;;;26.10;15.30;;;;;;;;;;5128428;27;20071;-64
2022/04/25 13:53:59;;;;;;;29.13;14.88;;;;;;;;;;5127333;27;20262;-64
2022/04/25 13:56:26;;;;;;;31.05;14.63;;;;;;;;;;5127527;27;20079;-64
2022/04/25 13:58:52;;;;;;;30.70;14.90;;;;;;;;;;5125814;27;20546;-64
2022/04/25 14:01:18;;;;;;;23.83;13.88;;;;;;;;;;5116023;27;20584;-66
2022/04/25 14:03:45;;;;;;;25.80;14.35;;;;;;;;;;5127503;27;20101;-66
2022/04/25 14:06:11;;;;;;;28.02;14.20;;;;;;;;;;5130374;27;20055;-66
2022/04/25 14:08:39;;;;;;;29.35;15.48;;;;;;;;;;5131671;27;20101;-66
2022/04/25 14:11:06;;;;;;;28.05;14.52;;;;;;;;;;5130475;27;20082;-66
2022/04/25 14:13:32;;;;;;;29.42;14.85;;;;;;;;;;5132323;27;20528;-66
2022/04/25 14:15:58;;;;;;;27.70;13.60;;;;;;;;;;5131119;27;20151;-66
2022/04/25 14:18:25;;;;;;;27.90;15.13;;;;;;;;;;5130424;27;20051;-66
2022/04/25 14:20:54;;;;;;;28.73;14.95;;;;;;;;;;5130596;27;20167;-67
2022/04/25 14:23:20;;;;;;;28.20;14.27;;;;;;;;;;5131154;27;20056;-66
2022/04/25 14:25:47;;;;;;;29.08;14.57;;;;;;;;;;5130905;27;20079;-65
2022/04/25 14:28:13;;;;;;;27.70;15.77;;;;;;;;;;5131049;27;20108;-65
2022/04/25 14:30:42;;;;;;;32.95;15.52;;;;;;;;;;5130374;27;20552;-65
2022/04/25 14:33:08;;;;;;;28.75;14.30;;;;;;;;;;5131186;27;20071;-66
2022/04/25 14:35:35;;;;;;;23.35;14.10;;;;;;;;;;5131110;27;20156;-65
2022/04/25 14:38:01;;;;;;;29.25;13.98;;;;;;;;;;5130814;27;20055;-66
2022/04/25 14:40:28;;;;;;;29.70;15.68;;;;;;;;;;5130862;27;20569;-66
2022/04/25 14:42:54;;;;;;;28.05;14.60;;;;;;;;;;5130641;27;20079;-65
2022/04/25 14:45:21;;;;;;;26.05;14.48;;;;;;;;;;5130341;27;20112;-65
2022/04/25 14:47:47;;;;;;;31.52;16.08;;;;;;;;;;5131013;27;20055;-65
2022/04/25 14:55:46;;;;;;;28.35;14.10;;;;;;;;;;5108986;28;20529;-65
2022/04/25 14:58:13;;;;;;;34.15;14.85;;;;;;;;;;5109920;27;20587;-65
2022/04/25 15:00:41;;;;;;;42.55;16.45;;;;;;;;;;5110173;27;20076;-66
2022/04/25 15:03:08;;;;;;;24.97;15.20;;;;;;;;;;5109559;27;20064;-66
2022/04/25 15:05:41;;;;;;;25.10;14.98;;;;;;;;;;5110229;27;20757;-65
2022/04/25 15:08:08;;;;;;;32.55;15.52;;;;;;;;;;5109428;27;20087;-67
2022/04/25 15:10:36;;;;;;;31.40;15.90;;;;;;;;;;5109885;27;20052;-66
2022/04/25 15:13:03;;;;;;;30.00;14.90;;;;;;;;;;5110100;27;20752;-66
2022/04/25 15:15:29;;;;;;;26.30;15.15;;;;;;;;;;5108736;27;20514;-66